Terminal Aerodrome Forecast
Issued by NWS

Home | Current Version | Previous Version | Text Only | Print | Product List | Glossary On
Versions: 1 2 3 4 5 6 7 8 9 10 11 12 13 14 15 16 17 18 19 20 21 22 23 24 25 26 27 28 29 30 31
782
FTUS42 KCAE 240842 AAA
TAFOGB
TAF AMD
KOGB 240842Z 2409/2506 VRB03KT 4SM BR SKC
      TEMPO 2409/2413 2SM BR
     FM241300 04009KT P6SM SCT060 SCT200
     FM250000 VRB04KT P6SM SCT200=

USA.gov is the U.S. government's official web portal to all federal, state and local government web resources and services.